M I D A S
Marine Information and Data Acquisition System
Tripno 2215 of the Zeeleeuw from 2011-11-18 06:19:57 to 2011-11-18 14:05:12
Back to CruiseResearch ActivitiesStationsMapUnderway DataData graphs

EquipmentUnitsComment
TimeDGPSUTC
LatitudeDGPSDM.mWGS84
LongitudeDGPSDM.mWGS84
HeadingGyrodeg 
SOGDGPSknotsSpeed over ground
COGDGPSdegCourse over ground
DepthEcho soundermeters200 kHz
Missing or incorrect values are displayed as -999
Navigation data collected by the RV Zeeleeuw from 2011-11-18 06:26:42 to 2011-11-18 14:21:20
Time Latitude Longitude Heading SOG COG Depth
2011-11-18 06:27:45 51°13.639 2°56.02 124.7 0.3 142 10.2
2011-11-18 06:28:45 51°13.639 2°56.019 125 -999 347 10.2
2011-11-18 06:29:46 51°13.639 2°56.019 123.7 -999 330 10.1
2011-11-18 06:30:45 51°13.638 2°56.019 125.2 -999 119 10.2
2011-11-18 06:31:46 51°13.635 2°56.017 124.9 -999 198 10.3
2011-11-18 06:32:45 51°13.638 2°56.018 126.7 0.1 70 10.2
2011-11-18 06:33:46 51°13.636 2°56.018 115.6 0.1 222 10.7
2011-11-18 06:34:45 51°13.635 2°56.011 101.5 1.4 284 10.6
2011-11-18 06:35:49 51°13.651 2°55.93 108.6 2.4 291 -999
2011-11-18 06:36:49 51°13.669 2°55.886 123.7 3.5 305 -999
2011-11-18 06:37:49 51°13.707 2°55.806 131.5 4 309 -999
2011-11-18 06:38:49 51°13.762 2°55.719 137.4 5.1 318 -999
2011-11-18 06:39:49 51°13.828 2°55.637 148.9 4.7 329 -999
2011-11-18 06:40:49 51°13.902 2°55.611 186.5 4.1 4 -999
2011-11-18 06:41:49 51°13.958 2°55.65 224.1 3.5 38 -999
2011-11-18 06:42:49 51°13.977 2°55.671 259.1 1.7 294 12.1
2011-11-18 06:43:47 51°14.013 2°55.561 299.9 6.6 303 13.3
2011-11-18 06:44:46 51°14.096 2°55.446 331.7 6.8 332 12.4
2011-11-18 06:45:48 51°14.205 2°55.364 336.4 7.3 336 -999
2011-11-18 06:46:49 51°14.322 2°55.268 332.6 8.1 333 12.4
2011-11-18 06:47:48 51°14.443 2°55.146 323.8 9.1 322 12.4
2011-11-18 06:48:48 51°14.574 2°54.987 325.5 10.6 325 13.7
2011-11-18 06:49:47 51°14.724 2°54.82 324.3 11.6 325 13.2
2011-11-18 06:50:46 51°14.884 2°54.633 320.5 12.4 324 13.6
2011-11-18 06:51:45 51°15.055 2°54.448 320.9 12.5 320 12.8
2011-11-18 06:52:46 51°15.218 2°54.23 322.6 12.5 324 13.4
2011-11-18 06:53:45 51°15.384 2°54.035 321.6 12.7 324 13.4
2011-11-18 06:54:45 51°15.547 2°53.822 317.2 12.6 319 13.5
2011-11-18 06:55:45 51°15.713 2°53.619 323.7 12.7 326 13.5
2011-11-18 06:56:46 51°15.888 2°53.421 320 12.6 323 13.8
2011-11-18 06:57:45 51°16.068 2°53.256 332.5 12.8 336 13.5
2011-11-18 06:58:45 51°16.262 2°53.119 333.7 12.8 337 13.7
2011-11-18 06:59:45 51°16.449 2°52.962 326.8 12.7 331 13.6
2011-11-18 07:00:46 51°16.643 2°52.81 334.6 12.9 337 13
2011-11-18 07:01:45 51°16.834 2°52.676 333.8 12.9 337 11.1
2011-11-18 07:02:45 51°17.027 2°52.531 331.2 12.8 334 11.2
2011-11-18 07:03:45 51°17.216 2°52.374 329.6 12.8 332 11.7
2011-11-18 07:04:45 51°17.408 2°52.224 333.3 13 336 12.8
2011-11-18 07:05:46 51°17.599 2°52.062 328.4 13.1 333 12.7
2011-11-18 07:06:46 51°17.787 2°51.9 328.2 12.8 332 11.9
2011-11-18 07:07:46 51°17.975 2°51.743 334 13 337 11.7
2011-11-18 07:08:46 51°18.17 2°51.607 333.8 13 336 12.7
2011-11-18 07:09:46 51°18.365 2°51.465 333.1 13.2 336 14.1
2011-11-18 07:10:45 51°18.552 2°51.312 328.9 13 332 15
2011-11-18 07:11:46 51°18.743 2°51.149 333.6 12.9 335 15.9
2011-11-18 07:12:45 51°18.936 2°51.004 330.1 13.1 333 16.2
2011-11-18 07:13:45 51°19.125 2°50.838 328.9 13.1 333 16.1
2011-11-18 07:14:45 51°19.321 2°50.696 333.2 13.2 336 14.9
2011-11-18 07:15:44 51°19.514 2°50.554 334 13 335 13.6
2011-11-18 07:16:46 51°19.711 2°50.392 328.3 12.9 331 14.4
2011-11-18 07:17:46 51°19.898 2°50.232 333 12.9 336 15.4
2011-11-18 07:18:46 51°20.094 2°50.09 331.3 12.9 334 17.8
2011-11-18 07:19:45 51°20.283 2°49.948 336.6 12.9 339 20.5
2011-11-18 07:20:46 51°20.496 2°49.85 342.7 13 344 23.2
2011-11-18 07:21:44 51°20.694 2°49.75 338.4 13 340 24.4
2011-11-18 07:22:46 51°20.904 2°49.635 341.4 13.1 344 24.4
2011-11-18 07:23:45 51°21.105 2°49.536 339.3 13.1 342 23.7
2011-11-18 07:24:45 51°21.309 2°49.43 339.2 13 342 23.1
2011-11-18 07:25:46 51°21.512 2°49.317 336.9 12.7 339 23.4
2011-11-18 07:26:45 51°21.692 2°49.161 319.6 12.5 321 24.3
2011-11-18 07:27:46 51°21.851 2°48.937 316.4 12.6 320 24.8
2011-11-18 07:28:44 51°22.007 2°48.729 318.3 12.6 320 24.9
2011-11-18 07:29:46 51°22.173 2°48.507 320.7 12.7 322 24.8
2011-11-18 07:30:45 51°22.334 2°48.301 317.5 12.6 320 21.6
2011-11-18 07:31:46 51°22.473 2°48.05 301.1 12.4 304 19.3
2011-11-18 07:32:45 51°22.587 2°47.781 301 12.4 303 20.3
2011-11-18 07:33:46 51°22.71 2°47.506 305 12.5 308 17.9
2011-11-18 07:34:45 51°22.831 2°47.241 304.9 12.6 309 21.4
2011-11-18 07:35:45 51°22.954 2°46.971 301 12.6 303 22.7
2011-11-18 07:36:46 51°23.081 2°46.699 305.9 12.6 308 24.6
2011-11-18 07:37:46 51°23.209 2°46.433 305.2 12.6 307 22.7
2011-11-18 07:38:46 51°23.327 2°46.158 300.8 12.6 302 26.8
2011-11-18 07:39:45 51°23.442 2°45.887 301.8 12.5 305 27.8
2011-11-18 07:40:46 51°23.571 2°45.613 304.9 12.6 307 28.5
2011-11-18 07:41:45 51°23.697 2°45.352 306.5 12.6 309 28
2011-11-18 07:42:45 51°23.816 2°45.08 300.8 12.5 304 28.2
2011-11-18 07:43:45 51°23.934 2°44.806 301.1 12.5 304 27.9
2011-11-18 07:44:44 51°24.048 2°44.537 303 12.5 305 27.4
2011-11-18 07:45:46 51°24.18 2°44.264 305.2 12.6 307 25.4
2011-11-18 07:46:46 51°24.305 2°43.999 303.2 12.5 305 26.9
2011-11-18 07:47:46 51°24.414 2°43.754 304.5 9.1 309 24.1
2011-11-18 07:48:45 51°24.485 2°43.617 300.5 5.6 308 25
2011-11-18 07:49:46 51°24.537 2°43.531 309.9 3.2 326 25.9
2011-11-18 07:50:45 51°24.572 2°43.517 346.2 2 -999 25.2
2011-11-18 07:51:46 51°24.619 2°43.547 48 3.6 44 22.3
2011-11-18 07:52:45 51°24.644 2°43.614 95.1 2.8 74 24.6
2011-11-18 07:53:46 51°24.653 2°43.668 108.3 1.6 60 23.4
2011-11-18 07:54:46 51°24.667 2°43.706 109.1 1.3 27 23
2011-11-18 07:55:46 51°24.687 2°43.721 107.7 1.4 22 24.4
2011-11-18 07:56:46 51°24.706 2°43.734 95 1.3 24 23.8
2011-11-18 07:57:45 51°24.729 2°43.749 85.3 1.7 34 21.2
2011-11-18 07:58:45 51°24.739 2°43.802 120.2 2.7 102 25.2
2011-11-18 07:59:45 51°24.7 2°43.831 197.3 3.3 201 25.9
2011-11-18 08:00:45 51°24.655 2°43.758 214.2 3.8 218 24.6
2011-11-18 08:01:45 51°24.633 2°43.692 256.4 1.7 288 22.7
2011-11-18 08:02:45 51°24.649 2°43.693 295.3 1.2 18 21.4
2011-11-18 08:03:48 51°24.665 2°43.707 310.8 1.1 28 23
2011-11-18 08:04:46 51°24.681 2°43.718 317.9 1.1 30 24.5
2011-11-18 08:05:46 51°24.691 2°43.738 329.8 0.9 71 23.5
2011-11-18 08:06:45 51°24.695 2°43.755 347 0.6 43 22.7
2011-11-18 08:07:45 51°24.706 2°43.767 348.8 1 23 21.1
2011-11-18 08:08:45 51°24.726 2°43.773 338.5 1.6 3 23.6
2011-11-18 08:09:45 51°24.755 2°43.764 308.3 1.8 338 24.8
2011-11-18 08:10:45 51°24.778 2°43.732 271.1 2.1 296 22.6
2011-11-18 08:11:45 51°24.781 2°43.686 230.5 1.3 266 22.7
2011-11-18 08:12:45 51°24.774 2°43.658 205.2 1 237 24.2
2011-11-18 08:13:44 51°24.77 2°43.649 190.1 0.1 191 24.2
2011-11-18 08:14:45 51°24.77 2°43.646 182.8 0.1 325 24
2011-11-18 08:15:44 51°24.773 2°43.648 174.1 0.3 20 24.3
2011-11-18 08:16:45 51°24.77 2°43.656 166.3 0.8 130 24.3
2011-11-18 08:17:45 51°24.765 2°43.674 162.7 0.6 108 23.9
2011-11-18 08:18:45 51°24.767 2°43.689 161.7 0.7 59 23.6
2011-11-18 08:19:46 51°24.772 2°43.703 160.5 0.7 41 22.4
2011-11-18 08:20:45 51°24.782 2°43.716 159.3 1.1 38 19.9
2011-11-18 08:21:45 51°24.797 2°43.728 149.1 1 22 23.9
2011-11-18 08:22:46 51°24.815 2°43.739 131.9 1.1 15 24.6
2011-11-18 08:23:45 51°24.828 2°43.759 126.7 1.1 60 24.3
2011-11-18 08:24:46 51°24.833 2°43.789 139.4 1.2 90 22.2
2011-11-18 08:25:46 51°24.829 2°43.811 163.6 0.7 131 20.3
2011-11-18 08:26:45 51°24.819 2°43.814 190.7 0.7 198 21.3
2011-11-18 08:27:45 51°24.808 2°43.803 196.2 0.8 213 23.2
2011-11-18 08:28:45 51°24.794 2°43.793 183.1 0.9 190 24
2011-11-18 08:29:45 51°24.777 2°43.789 179 1.1 181 24.7
2011-11-18 08:30:46 51°24.757 2°43.794 172.8 1.3 168 25
2011-11-18 08:31:45 51°24.734 2°43.803 169.2 1.3 160 25
2011-11-18 08:32:46 51°24.722 2°43.816 166.3 0.6 138 25.3
2011-11-18 08:33:45 51°24.72 2°43.825 168.5 0.4 61 25
2011-11-18 08:34:44 51°24.726 2°43.831 172.3 0.6 9 25
2011-11-18 08:35:45 51°24.74 2°43.834 181.3 1 7 24.6
2011-11-18 08:36:44 51°24.76 2°43.834 196.5 1.4 2 24.5
2011-11-18 08:37:45 51°24.785 2°43.837 216.2 1.5 7 22.7
2011-11-18 08:38:45 51°24.806 2°43.838 233.9 1.1 348 20.9
2011-11-18 08:39:45 51°24.815 2°43.815 228.7 1.3 271 21.2
2011-11-18 08:40:45 51°24.805 2°43.779 215.4 1.9 238 24.4
2011-11-18 08:41:45 51°24.789 2°43.739 210.6 1.5 244 24.2
2011-11-18 08:42:45 51°24.785 2°43.715 212 0.8 272 19.8
2011-11-18 08:43:45 51°24.789 2°43.696 216.4 0.8 306 21.6
2011-11-18 08:44:45 51°24.801 2°43.682 226.5 0.9 334 21.6
2011-11-18 08:45:45 51°24.816 2°43.668 238.7 1.2 335 21.4
2011-11-18 08:46:44 51°24.832 2°43.652 245.7 1.4 295 21.6
2011-11-18 08:47:45 51°24.824 2°43.611 205.9 1.7 223 24.1
2011-11-18 08:48:46 51°24.794 2°43.608 156.8 2.2 152 23.6
2011-11-18 08:49:45 51°24.759 2°43.634 168.5 1.8 166 23.1
2011-11-18 08:50:46 51°24.741 2°43.64 176 0.5 177 22.6
2011-11-18 08:51:46 51°24.746 2°43.638 188.9 1 -999 22.9
2011-11-18 08:52:46 51°24.775 2°43.648 215.8 2.1 20 -999
2011-11-18 08:53:47 51°24.804 2°43.666 237.5 1.6 23 22.9
2011-11-18 08:54:46 51°24.825 2°43.682 255.6 1.3 24 19.7
2011-11-18 08:55:45 51°24.843 2°43.694 272 1.2 20 23.7
2011-11-18 08:56:45 51°24.859 2°43.702 287.3 1 14 24.2
2011-11-18 08:57:47 51°24.875 2°43.702 290.8 1.4 326 -999
2011-11-18 08:58:48 51°24.875 2°43.64 228.1 3 236 22
2011-11-18 08:59:45 51°24.827 2°43.62 167.2 3.4 168 22.8
2011-11-18 09:00:45 51°24.785 2°43.633 172.1 2.1 174 24.1
2011-11-18 09:01:46 51°24.761 2°43.627 193.3 1.1 222 22.7
2011-11-18 09:02:45 51°24.755 2°43.604 215.6 0.9 270 20.1
2011-11-18 09:03:46 51°24.76 2°43.582 221.6 0.9 303 21.9
2011-11-18 09:04:45 51°24.772 2°43.564 231.9 1 325 22.5
2011-11-18 09:05:45 51°24.788 2°43.55 245.1 1.1 339 21.9
2011-11-18 09:06:45 51°24.805 2°43.542 260.8 1.1 338 21.5
2011-11-18 09:07:45 51°24.816 2°43.507 242.6 1.8 275 23.1
2011-11-18 09:08:46 51°24.804 2°43.463 203 1.7 221 22.9
2011-11-18 09:09:45 51°24.779 2°43.462 149.8 1.7 140 21.6
2011-11-18 09:10:46 51°24.768 2°43.518 113.1 2.4 94 23.3
2011-11-18 09:11:45 51°24.763 2°43.566 124.8 1.3 100 22.4
2011-11-18 09:12:44 51°24.763 2°43.595 124.2 0.9 71 20
2011-11-18 09:13:45 51°24.771 2°43.614 120.9 0.8 45 22.4
2011-11-18 09:14:45 51°24.784 2°43.623 114.5 1 16 23.5
2011-11-18 09:15:45 51°24.801 2°43.628 100.5 1.1 7 23.8
2011-11-18 09:16:45 51°24.818 2°43.627 86.5 1.1 355 23.5
2011-11-18 09:17:45 51°24.836 2°43.627 77.8 1.1 356 22.4
2011-11-18 09:18:45 51°24.854 2°43.646 94 2.1 71 19.3
2011-11-18 09:19:46 51°24.842 2°43.701 142 2.1 133 23.6
2011-11-18 09:20:45 51°24.819 2°43.715 170.7 1.2 176 23.4
2011-11-18 09:21:46 51°24.806 2°43.71 185.2 0.5 223 21.9
2011-11-18 09:22:45 51°24.807 2°43.696 204.2 0.8 301 19.4
2011-11-18 09:23:46 51°24.812 2°43.671 216.2 1.3 260 21.1
2011-11-18 09:24:45 51°24.8 2°43.642 189.9 1.2 223 23.7
2011-11-18 09:25:45 51°24.786 2°43.632 163.4 0.8 177 23.7
2011-11-18 09:26:46 51°24.772 2°43.642 156.5 0.8 142 23.3
2011-11-18 09:27:45 51°24.77 2°43.649 151.8 0.3 50 23.3
2011-11-18 09:28:46 51°24.778 2°43.652 146.1 0.6 356 23.6
2011-11-18 09:29:45 51°24.794 2°43.649 128.6 1.2 347 23
2011-11-18 09:30:44 51°24.813 2°43.636 107 1.4 326 23.5
2011-11-18 09:31:45 51°24.83 2°43.621 85.9 1 15 23.1
2011-11-18 09:32:45 51°24.838 2°43.659 113.5 2 100 19.3
2011-11-18 09:33:44 51°24.824 2°43.699 146.9 1.4 136 22
2011-11-18 09:34:46 51°24.809 2°43.711 164.9 0.6 164 22.6
2011-11-18 09:35:45 51°24.807 2°43.709 172.2 0.2 282 22.1
2011-11-18 09:36:45 51°24.814 2°43.705 180.4 0.7 331 21.6
2011-11-18 09:37:46 51°24.827 2°43.699 182 0.8 334 22.4
2011-11-18 09:38:45 51°24.833 2°43.688 189.2 0.6 271 22
2011-11-18 09:39:46 51°24.826 2°43.666 193.5 1.2 222 20.1
2011-11-18 09:40:45 51°24.807 2°43.647 181.3 1.5 196 23.1
2011-11-18 09:41:45 51°24.783 2°43.643 166.7 1.2 177 23.6
2011-11-18 09:42:45 51°24.786 2°43.637 161 0.9 345 -999
2011-11-18 09:43:46 51°24.808 2°43.623 148.4 1.8 336 23.1
2011-11-18 09:44:44 51°24.832 2°43.605 125 0.9 347 22.8
2011-11-18 09:45:45 51°24.831 2°43.629 135.8 1.4 118 22.9
2011-11-18 09:46:46 51°24.819 2°43.647 154.7 1 147 22.5
2011-11-18 09:47:45 51°24.807 2°43.654 163.7 0.5 158 22.6
2011-11-18 09:48:45 51°24.804 2°43.653 164.7 0.1 248 22.4
2011-11-18 09:49:46 51°24.809 2°43.65 162.2 0.4 344 23
2011-11-18 09:50:45 51°24.819 2°43.648 150.4 0.6 348 22.3
2011-11-18 09:51:45 51°24.83 2°43.647 131.9 0.9 356 21.8
2011-11-18 09:52:45 51°24.829 2°43.669 136.1 1.9 134 19.3
2011-11-18 09:53:46 51°24.802 2°43.687 167.5 1.3 172 20.1
2011-11-18 09:54:45 51°24.79 2°43.683 176.3 0.3 256 21.7
2011-11-18 09:55:45 51°24.792 2°43.678 176.8 0.5 321 21.7
2011-11-18 09:56:45 51°24.803 2°43.668 182.4 1 328 22.1
2011-11-18 09:57:45 51°24.82 2°43.658 193.2 1.3 339 21.2
2011-11-18 09:58:45 51°24.835 2°43.644 205 1 271 20.9
2011-11-18 09:59:45 51°24.823 2°43.619 180.6 1.4 198 23.1
2011-11-18 10:00:45 51°24.8 2°43.625 152.7 1.1 157 23.4
2011-11-18 10:01:45 51°24.791 2°43.639 138.4 0.5 104 23.5
2011-11-18 10:02:45 51°24.795 2°43.645 128.6 0.6 13 23
2011-11-18 10:03:45 51°24.804 2°43.656 116.8 0.9 80 22.2
2011-11-18 10:04:46 51°24.796 2°43.685 141.9 1.3 133 21
2011-11-18 10:05:45 51°24.785 2°43.696 156.8 0.4 152 21.2
2011-11-18 10:06:45 51°24.786 2°43.694 153.7 0.3 323 21.3
2011-11-18 10:07:45 51°24.795 2°43.688 142.4 0.7 330 20.6
2011-11-18 10:08:45 51°24.811 2°43.678 119.6 1.2 334 20.2
2011-11-18 10:09:45 51°24.828 2°43.665 93.5 0.9 357 19.3
2011-11-18 10:10:45 51°24.831 2°43.702 121.5 2.1 118 23.2
2011-11-18 10:11:45 51°24.804 2°43.734 162.6 1.8 167 23
2011-11-18 10:12:45 51°24.784 2°43.728 185.3 0.8 226 21.5
2011-11-18 10:13:45 51°24.79 2°43.713 215.7 0.9 339 19.4
2011-11-18 10:14:45 51°24.807 2°43.707 245.6 0.8 340 21.3
2011-11-18 10:15:45 51°24.821 2°43.701 266.1 0.8 340 21.6
2011-11-18 10:16:45 51°24.831 2°43.668 252.6 1.9 274 18.3
2011-11-18 10:17:45 51°24.823 2°43.617 219.1 2.1 240 23.1
2011-11-18 10:18:45 51°24.8 2°43.584 180 1.6 203 21.3
2011-11-18 10:19:45 51°24.782 2°43.585 143.1 0.7 140 19.3
2011-11-18 10:20:46 51°24.779 2°43.596 129.7 0.4 65 19.5
2011-11-18 10:21:45 51°24.784 2°43.602 122.7 0.5 18 21.7
2011-11-18 10:22:45 51°24.793 2°43.602 114.5 0.7 353 22.1
2011-11-18 10:23:45 51°24.806 2°43.599 103.4 0.7 352 22.8
2011-11-18 10:24:45 51°24.809 2°43.621 123 1.5 106 23.1
2011-11-18 10:25:45 51°24.797 2°43.646 142.9 0.8 133 22.8
2011-11-18 10:26:44 51°24.794 2°43.657 141.2 0.3 76 22.8
2011-11-18 10:27:45 51°24.792 2°43.666 147 0.2 79 22.5
2011-11-18 10:28:45 51°24.797 2°43.667 139.8 0.5 352 22.2
2011-11-18 10:29:45 51°24.809 2°43.662 123.1 1 342 21.9
2011-11-18 10:30:45 51°24.823 2°43.651 99.6 0.9 336 21.1
2011-11-18 10:31:45 51°24.836 2°43.64 85.8 0.9 340 20.6
2011-11-18 10:32:45 51°24.848 2°43.644 94.4 0.7 42 19.1
2011-11-18 10:33:45 51°24.854 2°43.661 110 0.8 78 20.9
2011-11-18 10:34:45 51°24.843 2°43.691 143.3 1.6 138 22.5
2011-11-18 10:35:44 51°24.828 2°43.7 157.6 0.7 172 22.2
2011-11-18 10:36:44 51°24.82 2°43.7 161 0.3 174 21.6
2011-11-18 10:37:45 51°24.819 2°43.697 156.1 0.2 299 20.7
2011-11-18 10:38:45 51°24.818 2°43.696 153.2 0.3 164 20.7
2011-11-18 10:39:45 51°24.811 2°43.693 166.1 0.3 219 18.6
2011-11-18 10:40:45 51°24.808 2°43.683 174 0.5 254 19.9
2011-11-18 10:41:45 51°24.808 2°43.67 179.7 0.6 284 20.8
2011-11-18 10:42:45 51°24.807 2°43.653 198 0.9 246 22.1
2011-11-18 10:43:45 51°24.807 2°43.623 230.9 1.3 277 23.3
2011-11-18 10:44:45 51°24.809 2°43.584 241.8 1.6 277 21.9
2011-11-18 10:45:45 51°24.808 2°43.535 239.4 1.8 268 20.9
2011-11-18 10:46:45 51°24.803 2°43.485 234.5 1.9 260 22.5
2011-11-18 10:47:45 51°24.796 2°43.434 234.1 2 255 18.8
2011-11-18 10:48:45 51°24.795 2°43.391 237.2 1.4 282 21.8
2011-11-18 10:49:45 51°24.799 2°43.356 242.8 1.4 282 22.4
2011-11-18 10:50:45 51°24.8 2°43.31 244.4 2.4 264 21.7
2011-11-18 10:51:46 51°24.792 2°43.232 253.5 3.3 270 22.6
2011-11-18 10:52:45 51°24.806 2°43.147 302.7 3.6 301 20.4
2011-11-18 10:53:45 51°24.844 2°43.079 325.8 3.1 319 22
2011-11-18 10:54:45 51°24.882 2°43.033 333.2 2.8 326 22.2
2011-11-18 10:55:45 51°24.918 2°42.999 345.7 2.5 336 21.8
2011-11-18 10:56:45 51°24.96 2°43.007 46.5 2.7 40 22.7
2011-11-18 10:57:46 51°24.963 2°43.074 112.6 2.8 116 22.2
2011-11-18 10:58:45 51°24.918 2°43.146 131.7 5.4 134 23.4
2011-11-18 10:59:44 51°24.849 2°43.278 126.5 7 129 22.1
2011-11-18 11:00:45 51°24.77 2°43.426 129 7.2 131 20.4
2011-11-18 11:01:45 51°24.692 2°43.564 125.8 6.1 130 21.9
2011-11-18 11:02:45 51°24.657 2°43.663 105.6 3.1 106 21.5
2011-11-18 11:03:45 51°24.656 2°43.711 99.6 0.5 51 24
2011-11-18 11:04:45 51°24.663 2°43.711 87.1 0.4 15 24.1
2011-11-18 11:05:45 51°24.67 2°43.711 89.5 0.5 340 20
2011-11-18 11:06:46 51°24.678 2°43.703 96.6 0.6 308 22.9
2011-11-18 11:07:45 51°24.686 2°43.686 94.7 0.9 301 22.8
2011-11-18 11:08:45 51°24.691 2°43.687 100.3 1.4 96 22.8
2011-11-18 11:09:46 51°24.67 2°43.722 142.5 1.5 154 22.6
2011-11-18 11:10:45 51°24.666 2°43.719 139.3 0.4 309 23.5
2011-11-18 11:11:45 51°24.675 2°43.706 114.8 0.9 316 22.3
2011-11-18 11:12:45 51°24.684 2°43.686 86.2 0.9 302 22.8
2011-11-18 11:13:45 51°24.693 2°43.665 71.4 1 309 20.4
2011-11-18 11:14:45 51°24.701 2°43.645 70.9 0.7 329 19.4
2011-11-18 11:15:45 51°24.706 2°43.662 104.4 1.1 102 21
2011-11-18 11:16:46 51°24.692 2°43.693 127.5 1.7 133 23.1
2011-11-18 11:17:45 51°24.678 2°43.723 114.9 1.2 107 21
2011-11-18 11:18:45 51°24.672 2°43.744 115.8 0.1 117 22.7
2011-11-18 11:19:45 51°24.674 2°43.744 115.3 0.2 314 22.7
2011-11-18 11:20:45 51°24.679 2°43.735 110.1 0.6 315 21.9
2011-11-18 11:21:45 51°24.686 2°43.722 95.1 0.4 340 22.7
2011-11-18 11:22:44 51°24.687 2°43.737 110.8 1.1 112 22.3
2011-11-18 11:23:45 51°24.67 2°43.761 141.5 1.2 156 22.2
2011-11-18 11:24:45 51°24.66 2°43.764 138.1 0.1 226 22.9
2011-11-18 11:25:45 51°24.664 2°43.755 119.4 0.8 307 22.6
2011-11-18 11:26:45 51°24.67 2°43.745 103 0.7 96 22.9
2011-11-18 11:27:45 51°24.675 2°43.738 96.4 1.3 297 22.6
2011-11-18 11:28:48 51°24.678 2°43.695 70.1 1.5 266 23.1
2011-11-18 11:29:48 51°24.685 2°43.685 78.3 0.4 5 22.6
2011-11-18 11:30:46 51°24.692 2°43.691 72.7 1.2 52 23
2011-11-18 11:31:45 51°24.727 2°43.708 6 2.6 351 22.8
2011-11-18 11:32:44 51°24.736 2°43.689 22.8 1.4 240 22.5
2011-11-18 11:33:49 51°24.696 2°43.647 5.6 3.6 202 -999
2011-11-18 11:34:48 51°24.633 2°43.632 344.5 4.1 178 -999
2011-11-18 11:35:48 51°24.592 2°43.636 339.7 1.1 195 23
2011-11-18 11:36:46 51°24.609 2°43.638 44.6 2.1 38 23.9
2011-11-18 11:37:45 51°24.609 2°43.698 113.9 2.8 125 22.7
2011-11-18 11:38:45 51°24.575 2°43.759 101.7 2.9 101 21.7
2011-11-18 11:39:45 51°24.605 2°43.806 19.7 2.5 6 24.2
2011-11-18 11:40:45 51°24.622 2°43.789 347.4 1.2 312 23.5
2011-11-18 11:41:45 51°24.636 2°43.761 331.8 1.5 305 24.3
2011-11-18 11:42:45 51°24.649 2°43.729 319.4 1.4 303 24
2011-11-18 11:43:45 51°24.658 2°43.696 305 1 283 21
2011-11-18 11:44:44 51°24.655 2°43.696 298.4 1 122 20.7
2011-11-18 11:45:45 51°24.648 2°43.702 317.4 0.8 282 22.1
2011-11-18 11:46:44 51°24.659 2°43.652 284.3 3.7 275 22
2011-11-18 11:47:45 51°24.619 2°43.549 201 5.2 206 20.3
2011-11-18 11:48:45 51°24.54 2°43.592 127 5.8 134 23
2011-11-18 11:49:45 51°24.481 2°43.719 111.6 4.7 111 23.6
2011-11-18 11:50:45 51°24.501 2°43.795 43.8 3.2 37 22.7
2011-11-18 11:51:45 51°24.542 2°43.855 59.7 3.3 53 25.2
2011-11-18 11:52:45 51°24.583 2°43.89 14.2 2.2 351 19.9
2011-11-18 11:53:45 51°24.604 2°43.862 337.7 1.8 311 21
2011-11-18 11:54:46 51°24.627 2°43.829 348.7 1.7 317 20.3
2011-11-18 11:55:45 51°24.645 2°43.796 339.7 1.6 305 20.4
2011-11-18 11:56:45 51°24.659 2°43.762 324.2 1.6 300 22.6
2011-11-18 11:57:46 51°24.666 2°43.73 306 1.1 284 23.2
2011-11-18 11:58:45 51°24.67 2°43.702 291.1 1.1 284 22.4
2011-11-18 11:59:45 51°24.673 2°43.674 278.1 1 277 18.6
2011-11-18 12:00:45 51°24.677 2°43.648 270 1 290 21.7
2011-11-18 12:01:45 51°24.67 2°43.592 239.7 3.2 247 22.5
2011-11-18 12:02:45 51°24.623 2°43.535 177.7 3.8 190 21.5
2011-11-18 12:03:45 51°24.589 2°43.577 90.5 2.8 93 20.6
2011-11-18 12:04:45 51°24.583 2°43.677 101.1 4.2 105 24.1
2011-11-18 12:05:45 51°24.548 2°43.766 119.2 3.1 124 21.5
2011-11-18 12:06:45 51°24.547 2°43.824 66.7 2.2 58 25.4
2011-11-18 12:07:45 51°24.573 2°43.865 46.5 2.3 32 23.1
2011-11-18 12:08:45 51°24.609 2°43.89 39.1 1.4 18 23.9
2011-11-18 12:09:45 51°24.619 2°43.883 46.8 0.7 285 24.3
2011-11-18 12:10:45 51°24.633 2°43.877 33.6 2.1 11 24.6
2011-11-18 12:11:45 51°24.672 2°43.849 338.3 2 319 24.3
2011-11-18 12:12:45 51°24.673 2°43.829 338.1 0.7 255 24.4
2011-11-18 12:13:45 51°24.671 2°43.811 337.6 0.7 255 24.1
2011-11-18 12:14:45 51°24.671 2°43.791 334.2 0.9 281 21.6
2011-11-18 12:15:45 51°24.674 2°43.766 323.1 1.1 278 21.2
2011-11-18 12:16:45 51°24.677 2°43.742 307.1 0.9 271 22.3
2011-11-18 12:17:45 51°24.676 2°43.728 294.5 0.5 261 20.9
2011-11-18 12:18:45 51°24.677 2°43.717 292.6 0.4 270 23.2
2011-11-18 12:19:45 51°24.679 2°43.704 293.3 0.6 285 23.5
2011-11-18 12:20:45 51°24.681 2°43.689 292.7 0.6 271 22.7
2011-11-18 12:21:45 51°24.684 2°43.671 290.8 0.7 276 19.9
2011-11-18 12:22:45 51°24.687 2°43.649 288.6 0.9 288 20.5
2011-11-18 12:23:45 51°24.688 2°43.625 284.1 1 275 22.5
2011-11-18 12:24:45 51°24.691 2°43.599 277.1 0.9 283 22.7
2011-11-18 12:25:45 51°24.694 2°43.574 276.9 1.4 279 22.9
2011-11-18 12:26:45 51°24.684 2°43.507 234.7 3.2 241 19.4
2011-11-18 12:27:46 51°24.64 2°43.45 186.6 3.6 199 23.3
2011-11-18 12:28:45 51°24.581 2°43.449 151.8 3.8 165 23.4
2011-11-18 12:29:44 51°24.53 2°43.504 128 3.9 136 24.2
2011-11-18 12:30:45 51°24.509 2°43.595 84.5 3.6 85 23.5
2011-11-18 12:31:45 51°24.512 2°43.694 91.5 3.7 93 23.9
2011-11-18 12:32:45 51°24.508 2°43.797 90.3 4 93 21.7
2011-11-18 12:33:45 51°24.522 2°43.885 51.6 3.1 41 25.3
2011-11-18 12:34:45 51°24.574 2°43.876 347.1 3.9 335 22.6
2011-11-18 12:35:45 51°24.641 2°43.829 349.8 4.1 337 23.3
2011-11-18 12:36:45 51°24.675 2°43.795 9 0.8 300 23
2011-11-18 12:37:45 51°24.674 2°43.773 48 0.8 277 21.4
2011-11-18 12:38:45 51°24.675 2°43.745 69.1 0.9 274 22
2011-11-18 12:39:45 51°24.673 2°43.753 103.7 0.3 122 22
2011-11-18 12:40:45 51°24.67 2°43.751 103.2 0.4 271 23.2
2011-11-18 12:41:46 51°24.671 2°43.735 98.1 0.6 282 23.4
2011-11-18 12:42:45 51°24.673 2°43.716 91.1 0.8 272 20.5
2011-11-18 12:43:45 51°24.675 2°43.694 85.7 0.9 283 23
2011-11-18 12:44:45 51°24.679 2°43.668 76.8 1.1 278 19.6
2011-11-18 12:45:45 51°24.682 2°43.643 74.6 0.7 290 21
2011-11-18 12:46:45 51°24.687 2°43.647 83 0.9 94 20.8
2011-11-18 12:47:45 51°24.679 2°43.678 115 1.7 127 20.4
2011-11-18 12:48:45 51°24.667 2°43.713 88.2 1.2 97 23.1
2011-11-18 12:49:45 51°24.674 2°43.736 68.7 0.6 57 23.3
2011-11-18 12:50:45 51°24.675 2°43.741 82.5 0.1 183 22.3
2011-11-18 12:51:45 51°24.675 2°43.731 91.1 0.5 269 22.9
2011-11-18 12:52:45 51°24.676 2°43.717 94.6 0.6 278 20.5
2011-11-18 12:53:45 51°24.678 2°43.7 94.6 0.8 286 23.3
2011-11-18 12:54:45 51°24.681 2°43.68 89.7 0.8 282 22.2
2011-11-18 12:55:45 51°24.683 2°43.657 85.7 0.8 274 19.7
2011-11-18 12:56:45 51°24.686 2°43.636 86.4 0.8 284 22.1
2011-11-18 12:57:44 51°24.689 2°43.614 82.5 0.9 290 22.6
2011-11-18 12:58:45 51°24.693 2°43.594 79.8 0.8 282 23
2011-11-18 12:59:44 51°24.696 2°43.573 78.1 0.8 282 23
2011-11-18 13:00:45 51°24.699 2°43.552 77.7 0.7 271 22.2
2011-11-18 13:01:44 51°24.7 2°43.528 76.4 0.9 269 21.4
2011-11-18 13:02:45 51°24.702 2°43.504 78.1 0.9 272 17.9
2011-11-18 13:03:45 51°24.703 2°43.489 83.1 0.2 41 20
2011-11-18 13:04:45 51°24.694 2°43.515 116.3 1.9 135 17.9
2011-11-18 13:05:45 51°24.654 2°43.578 124.9 5.4 132 22
2011-11-18 13:06:45 51°24.573 2°43.722 130.2 8.6 139 23.3
2011-11-18 13:07:45 51°24.457 2°43.874 136.3 9.1 143 21.8
2011-11-18 13:08:45 51°24.344 2°44.037 125.1 9.7 131 24.5
2011-11-18 13:09:45 51°24.237 2°44.273 120.1 11.6 125 25.8
2011-11-18 13:10:45 51°24.107 2°44.511 128.7 12.1 135 26.1
2011-11-18 13:11:45 51°23.959 2°44.726 130.7 12.1 137 26.9
2011-11-18 13:12:45 51°23.816 2°44.948 130 12.1 136 26.4
2011-11-18 13:13:45 51°23.674 2°45.174 129.4 12 134 26.6
2011-11-18 13:14:45 51°23.534 2°45.407 126.5 12.1 133 27.2
2011-11-18 13:15:45 51°23.39 2°45.635 131.5 12.2 137 26.4
2011-11-18 13:16:45 51°23.243 2°45.858 131.1 12.1 137 25.2
2011-11-18 13:17:45 51°23.106 2°46.095 128.3 12 134 25.3
2011-11-18 13:18:45 51°22.968 2°46.33 127.1 12.1 132 24.4
2011-11-18 13:19:44 51°22.829 2°46.55 132.8 10.5 139 14.8
2011-11-18 13:20:45 51°22.735 2°46.673 141.2 5.6 148 21.5
2011-11-18 13:21:45 51°22.641 2°46.727 162.8 7.1 170 21
2011-11-18 13:22:45 51°22.489 2°46.739 171.4 10.5 177 15.1
2011-11-18 13:23:45 51°22.299 2°46.753 173 12 177 18.6
2011-11-18 13:24:45 51°22.102 2°46.818 158.4 12.6 163 21.7
2011-11-18 13:25:45 51°21.909 2°46.927 156.9 12.2 161 24.1
2011-11-18 13:26:45 51°21.729 2°47.07 142.3 11.9 147 24.1
2011-11-18 13:27:45 51°21.572 2°47.261 137.5 11.9 141 24.9
2011-11-18 13:28:45 51°21.411 2°47.443 138.5 11.7 145 23.2
2011-11-18 13:29:45 51°21.252 2°47.626 139.7 11.8 146 22
2011-11-18 13:30:45 51°21.085 2°47.799 139.5 11.9 146 20.9
2011-11-18 13:31:45 51°20.922 2°47.98 139.9 12 145 20
2011-11-18 13:32:45 51°20.753 2°48.151 142.7 12 146 20.4
2011-11-18 13:33:45 51°20.588 2°48.331 138.8 12 144 21.4
2011-11-18 13:34:45 51°20.425 2°48.517 138.9 12 144 22.5
2011-11-18 13:35:45 51°20.262 2°48.702 138.5 12 145 22.6
2011-11-18 13:36:45 51°20.093 2°48.874 143.4 12.1 148 22.4
2011-11-18 13:37:45 51°19.927 2°49.052 138.3 12.1 145 20.2
2011-11-18 13:38:45 51°19.758 2°49.225 139.7 11.8 146 17.9
2011-11-18 13:39:45 51°19.598 2°49.414 137.2 11.9 141 15.7
2011-11-18 13:40:45 51°19.447 2°49.622 133 12 137 14.1
2011-11-18 13:41:45 51°19.295 2°49.828 138.6 12.1 144 12.6
2011-11-18 13:42:45 51°19.134 2°50.016 138.5 12 142 11.8
2011-11-18 13:43:45 51°18.978 2°50.221 135.8 12.1 141 13.2
2011-11-18 13:44:45 51°18.818 2°50.418 136.4 12.2 142 14.6
2011-11-18 13:45:45 51°18.662 2°50.625 136.7 12.3 141 14.8
2011-11-18 13:46:45 51°18.498 2°50.822 138.5 12.4 143 14.2
2011-11-18 13:47:45 51°18.344 2°51.031 131.6 12.1 137 13.6
2011-11-18 13:48:45 51°18.186 2°51.239 136.7 12.4 141 12.6
2011-11-18 13:49:45 51°18.027 2°51.442 139.4 12.2 144 11.2
2011-11-18 13:50:45 51°17.864 2°51.64 136.9 12.2 140 10.5
2011-11-18 13:51:45 51°17.698 2°51.831 145.6 12.5 150 10.3
2011-11-18 13:52:45 51°17.519 2°51.993 145.7 12.5 149 10.9
2011-11-18 13:53:44 51°17.345 2°52.162 141 12.3 144 11.4
2011-11-18 13:54:45 51°17.169 2°52.341 146 12.3 151 10.5
2011-11-18 13:55:44 51°16.994 2°52.503 146.5 12.3 150 10
2011-11-18 13:56:45 51°16.821 2°52.687 142.3 12.2 145 10
2011-11-18 13:57:45 51°16.65 2°52.868 145.5 12.3 148 11.6
2011-11-18 13:58:45 51°16.468 2°53.016 157.1 12.3 161 12.3
2011-11-18 13:59:45 51°16.275 2°53.126 153.6 12.2 155 12.4
2011-11-18 14:00:45 51°16.092 2°53.265 151.9 12.2 156 12.3
2011-11-18 14:01:45 51°15.9 2°53.374 155 12.2 159 12.9
2011-11-18 14:02:44 51°15.718 2°53.507 151 12.2 153 12.1
2011-11-18 14:03:44 51°15.545 2°53.674 143.5 12.2 147 11.1
2011-11-18 14:04:44 51°15.386 2°53.869 135 12 138 10.4
2011-11-18 14:05:45 51°15.234 2°54.086 138.3 12.2 141 10.5
2011-11-18 14:06:45 51°15.078 2°54.29 134.9 12.3 138 11.1
2011-11-18 14:07:45 51°14.929 2°54.507 135.3 12.2 137 12.1
2011-11-18 14:08:44 51°14.778 2°54.71 141.5 12 142 12.2
2011-11-18 14:09:44 51°14.619 2°54.907 140.2 12.1 141 12.2
2011-11-18 14:10:44 51°14.461 2°55.102 145.5 11.9 147 11.5
2011-11-18 14:11:46 51°14.296 2°55.265 146.7 10.9 147 -999
2011-11-18 14:12:48 51°14.149 2°55.417 148.3 9.4 153 11.2
2011-11-18 14:13:47 51°14.031 2°55.496 157.5 7 159 11.9
2011-11-18 14:14:45 51°13.933 2°55.557 157.9 6.2 160 11.7
2011-11-18 14:15:45 51°13.841 2°55.619 152.7 5.9 154 11.7
2011-11-18 14:16:45 51°13.764 2°55.696 138.4 4.6 140 11.8
2011-11-18 14:17:45 51°13.718 2°55.779 126 3.9 127 13.1
2011-11-18 14:18:48 51°13.679 2°55.863 124.7 3.5 126 10.9
2011-11-18 14:19:46 51°13.648 2°55.935 121.7 3.7 120 10.3
2011-11-18 14:20:45 51°13.633 2°56.005 105.3 2 108 9.6